Presidente Lucena, Brazil
Current Conditions -  °F | °C
As of 3:00 PM on Saturday 25 Oct 2014 (Local Time) from SBCO Reporting Station
Broken Clouds Broken Clouds  
Wind Chill: 79°   Ceiling: 3000
Heat Index: 81°   Visibility: 5mi
Dew Point: 68°   Wind: 9mph
Humidity: 69%   Direction: 270°W
Pressure: 29.91"   Gusts: NA
Location:  29.52°S, 51.18°W
Report Text: SBCO 251700Z 27008KT 8000 SCT025 BKN030 26/20 Q1013
Loading
Personal Weather Stations






























Interactive Weather Map
Tropical Storm Tracking
New forecast layout! Learn more

10-Day Weather Forecast

Advertisements
Track Severe Weather on mobile